Time;durP1;ratioP1;P1;durP2;ratioP2;P2;SDS_P1;SDS_P2;PMS_P1;PMS_P2;Temp;Humidity;BMP_temperature;BMP_pressure;BME280_temperature;BME280_humidity;BME280_pressure;Samples;Min_cycle;Max_cycle;Signal;HPM_P1;HPM_P2
2022/02/11 00:00:03;;;;;;;6.57;5.55;;;5.70;99.90;;;;;;5050700;28;20181;-52
2022/02/11 00:05:28;;;;;;;8.80;6.20;;;5.60;99.90;;;;;;5050901;28;20174;-54
2022/02/11 00:07:56;;;;;;;9.05;5.90;;;5.60;99.90;;;;;;5048392;28;20185;-53
2022/02/11 00:10:23;;;;;;;7.95;6.20;;;5.60;99.90;;;;;;5050589;28;20177;-59
2022/02/11 00:12:49;;;;;;;8.80;6.55;;;5.60;99.90;;;;;;5050413;28;20370;-58
2022/02/11 00:17:59;;;;;;;7.40;6.40;;;5.60;99.90;;;;;;5050208;28;20432;-51
2022/02/11 00:20:26;;;;;;;9.77;6.13;;;5.60;99.90;;;;;;5052080;28;20178;-52
2022/02/11 00:22:52;;;;;;;9.70;6.47;;;5.60;99.90;;;;;;5052307;28;20171;-53
2022/02/11 00:25:19;;;;;;;9.57;6.20;;;5.60;99.90;;;;;;5048377;28;20205;-55
2022/02/11 00:33:38;;;;;;;9.40;6.82;;;5.60;99.90;;;;;;5055004;28;20169;-55
2022/02/11 00:36:07;;;;;;;7.30;6.50;;;5.70;99.90;;;;;;5056394;28;20296;-55
2022/02/11 00:46:59;;;;;;;9.00;6.63;;;5.70;99.90;;;;;;5053940;28;20202;-52
2022/02/11 01:03:03;;;;;;;10.65;6.90;;;5.70;99.90;;;;;;5071445;28;20268;-55
2022/02/11 01:05:29;;;;;;;10.90;6.95;;;5.70;99.90;;;;;;5055948;28;20536;-56
2022/02/11 01:07:54;;;;;;;11.53;7.17;;;5.70;99.90;;;;;;5051413;28;20182;-55
2022/02/11 01:10:21;;;;;;;11.30;6.90;;;5.70;99.90;;;;;;5051665;28;20178;-55
2022/02/11 01:12:46;;;;;;;12.45;7.28;;;5.60;99.90;;;;;;5053302;28;20182;-62
2022/02/11 01:15:12;;;;;;;9.43;7.40;;;5.70;99.90;;;;;;5053312;28;20320;-55
2022/02/11 01:17:43;;;;;;;10.33;7.20;;;5.70;99.90;;;;;;5051855;28;20273;-57
2022/02/11 01:27:39;;;;;;;11.73;7.05;;;5.70;99.90;;;;;;5053808;28;20234;-51
2022/02/11 01:30:28;;;;;;;10.02;7.05;;;5.70;99.90;;;;;;5051660;28;20636;-53
2022/02/11 01:51:24;;;;;;;6.70;5.45;;;5.70;99.90;;;;;;5053093;28;20178;-54
2022/02/11 01:56:44;;;;;;;6.57;4.80;;;5.60;99.90;;;;;;5059284;28;20193;-54
2022/02/11 02:34:01;;;;;;;6.95;4.55;;;5.50;99.90;;;;;;5053924;28;20194;-62
2022/02/11 02:36:55;;;;;;;8.52;5.00;;;5.40;99.90;;;;;;5069256;28;20543;-56
2022/02/11 02:58:15;;;;;;;8.10;5.63;;;5.40;99.90;;;;;;5048831;28;20182;-54
2022/02/11 03:01:16;;;;;;;7.60;5.70;;;5.40;99.90;;;;;;5067262;28;20178;-61
2022/02/11 03:55:38;;;;;;;6.03;4.70;;;4.90;99.90;;;;;;5070297;28;20177;-54
2022/02/11 04:28:12;;;;;;;6.32;4.75;;;4.70;99.90;;;;;;5050469;28;20217;-53
2022/02/11 04:59:55;;;;;;;5.82;3.90;;;4.50;99.90;;;;;;5073710;28;20811;-53
2022/02/11 05:02:25;;;;;;;5.13;3.40;;;4.50;99.90;;;;;;5061778;28;20186;-54
2022/02/11 05:04:55;;;;;;;3.97;3.28;;;4.30;99.90;;;;;;5041059;28;20220;-54
2022/02/11 05:07:21;;;;;;;4.22;3.10;;;4.30;99.90;;;;;;5056815;28;20275;-52
2022/02/11 05:09:46;;;;;;;5.93;4.00;;;4.30;99.90;;;;;;5055248;28;20189;-56
2022/02/11 05:12:12;;;;;;;5.23;3.53;;;4.30;99.90;;;;;;5068306;28;20273;-54
2022/02/11 05:14:37;;;;;;;6.33;4.70;;;4.30;99.90;;;;;;5052620;28;20190;-52
2022/02/11 05:17:03;;;;;;;4.93;3.70;;;4.20;99.90;;;;;;5056028;28;20189;-50
2022/02/11 05:19:29;;;;;;;6.50;4.50;;;4.20;99.90;;;;;;5046698;28;20272;-51
2022/02/11 05:21:54;;;;;;;4.87;3.87;;;4.30;99.90;;;;;;5047550;28;20262;-54
2022/02/11 05:24:20;;;;;;;4.10;3.00;;;4.30;99.90;;;;;;5043132;28;20339;-53
2022/02/11 05:26:46;;;;;;;4.40;3.10;;;4.20;99.90;;;;;;5046882;28;20284;-53
2022/02/11 05:29:11;;;;;;;5.37;3.50;;;4.20;99.90;;;;;;5057560;28;20173;-54
2022/02/11 05:31:37;;;;;;;5.20;4.13;;;4.10;99.90;;;;;;5052258;28;20178;-55
2022/02/11 05:34:02;;;;;;;8.30;4.40;;;4.10;99.90;;;;;;5052828;28;20182;-52
2022/02/11 05:36:28;;;;;;;7.60;4.50;;;4.10;99.90;;;;;;5058363;28;20197;-51
2022/02/11 05:38:53;;;;;;;5.60;3.90;;;4.20;99.90;;;;;;5070091;28;20257;-52
2022/02/11 05:41:20;;;;;;;4.93;4.00;;;4.20;99.90;;;;;;5059913;28;20212;-55
2022/02/11 05:43:45;;;;;;;9.45;4.35;;;4.20;99.90;;;;;;5059085;28;20186;-52
2022/02/11 05:46:11;;;;;;;6.87;4.03;;;4.10;99.90;;;;;;5056133;28;20229;-53
2022/02/11 05:48:39;;;;;;;5.00;3.70;;;4.00;99.90;;;;;;5053262;28;20182;-54
2022/02/11 05:51:08;;;;;;;5.30;4.05;;;4.00;99.90;;;;;;5062487;28;20275;-57
2022/02/11 05:53:34;;;;;;;4.90;3.83;;;3.90;99.90;;;;;;5062013;28;20210;-52
2022/02/11 05:55:59;;;;;;;4.70;3.50;;;4.00;99.90;;;;;;5058784;28;20610;-55
2022/02/11 05:58:25;;;;;;;5.87;3.97;;;4.00;99.90;;;;;;5059508;28;20185;-54
2022/02/11 06:00:53;;;;;;;7.35;4.05;;;4.00;99.90;;;;;;5054258;28;20202;-52
2022/02/11 06:03:18;;;;;;;6.30;4.63;;;3.90;99.90;;;;;;5060334;28;20550;-53
2022/02/11 06:05:44;;;;;;;5.63;4.17;;;3.90;99.90;;;;;;5057217;28;20178;-52
2022/02/11 06:08:11;;;;;;;5.20;3.67;;;3.90;99.90;;;;;;5058622;28;20248;-51
2022/02/11 06:10:37;;;;;;;3.75;3.25;;;3.90;99.90;;;;;;5062566;28;20169;-51
2022/02/11 06:13:02;;;;;;;4.57;3.60;;;3.80;99.90;;;;;;5060632;28;20166;-53
2022/02/11 06:15:28;;;;;;;5.30;4.17;;;3.80;99.90;;;;;;5062838;28;20181;-55
2022/02/11 06:17:53;;;;;;;5.50;4.10;;;3.70;99.90;;;;;;5062124;28;20235;-54
2022/02/11 06:20:27;;;;;;;4.93;3.80;;;3.60;99.90;;;;;;5050746;28;20194;-51
2022/02/11 06:22:52;;;;;;;4.68;3.47;;;3.60;99.90;;;;;;5045957;28;20191;-54
2022/02/11 06:25:18;;;;;;;5.63;3.37;;;3.50;99.90;;;;;;5058177;28;20190;-59
2022/02/11 06:27:43;;;;;;;4.07;3.10;;;3.50;99.90;;;;;;5058318;28;20300;-53
2022/02/11 06:30:10;;;;;;;3.50;3.10;;;3.50;99.90;;;;;;5064627;28;20185;-50
2022/02/11 06:32:35;;;;;;;3.65;3.25;;;3.40;99.90;;;;;;5064107;28;20264;-50
2022/02/11 06:35:01;;;;;;;3.67;2.77;;;3.40;99.90;;;;;;5059210;28;20262;-52
2022/02/11 06:37:26;;;;;;;3.70;3.30;;;3.40;99.90;;;;;;5055797;28;20185;-52
2022/02/11 06:39:52;;;;;;;3.70;3.30;;;3.30;99.90;;;;;;5060937;28;20171;-51
2022/02/11 06:42:18;;;;;;;5.00;3.80;;;3.20;99.90;;;;;;5059062;28;20632;-52
2022/02/11 06:44:43;;;;;;;4.80;3.70;;;3.10;99.90;;;;;;5051846;28;20179;-52
2022/02/11 06:47:09;;;;;;;4.40;3.70;;;3.10;99.90;;;;;;5057717;28;20492;-50
2022/02/11 06:49:34;;;;;;;5.73;3.80;;;3.00;99.90;;;;;;5051682;28;20174;-53
2022/02/11 06:52:00;;;;;;;5.57;4.20;;;3.00;99.90;;;;;;5056490;28;20218;-53
2022/02/11 06:54:25;;;;;;;4.80;3.97;;;3.00;99.90;;;;;;5063585;28;20648;-56
2022/02/11 06:56:51;;;;;;;6.17;4.33;;;3.00;99.90;;;;;;5049438;28;20270;-57
2022/02/11 06:59:16;;;;;;;5.60;4.03;;;2.90;99.90;;;;;;5064932;28;20185;-56
2022/02/11 07:01:42;;;;;;;4.73;4.23;;;3.00;99.90;;;;;;5050959;28;20194;-56
2022/02/11 07:04:08;;;;;;;5.67;4.40;;;2.90;99.90;;;;;;5066018;28;20196;-56
2022/02/11 07:06:34;;;;;;;6.40;4.30;;;2.90;99.90;;;;;;5064210;28;20534;-57
2022/02/11 07:08:59;;;;;;;5.60;3.93;;;2.90;99.90;;;;;;5064476;28;20174;-58
2022/02/11 07:11:25;;;;;;;5.87;4.20;;;2.80;99.90;;;;;;5071180;28;20762;-58
2022/02/11 07:13:50;;;;;;;4.73;3.43;;;2.80;99.90;;;;;;5046619;28;20182;-58
2022/02/11 07:16:16;;;;;;;5.60;4.23;;;2.80;99.90;;;;;;5048495;28;20175;-58
2022/02/11 07:18:43;;;;;;;4.63;3.65;;;2.70;99.90;;;;;;5047207;28;20182;-56
2022/02/11 07:21:08;;;;;;;5.13;3.70;;;2.70;99.90;;;;;;5044263;28;20182;-57
2022/02/11 07:23:34;;;;;;;4.70;3.73;;;2.70;99.90;;;;;;5043939;28;20910;-56
2022/02/11 07:26:00;;;;;;;3.73;3.10;;;2.60;99.90;;;;;;5051412;28;20182;-54
2022/02/11 07:28:25;;;;;;;5.10;3.37;;;2.70;99.90;;;;;;5062410;28;20186;-58
2022/02/11 07:30:51;;;;;;;4.87;2.93;;;2.60;99.90;;;;;;5062710;28;20186;-57
2022/02/11 07:33:17;;;;;;;4.83;3.47;;;2.60;99.90;;;;;;5050954;28;20178;-58
2022/02/11 07:35:44;;;;;;;3.80;3.00;;;2.70;99.90;;;;;;5048880;28;20257;-55
2022/02/11 07:38:10;;;;;;;5.03;3.40;;;2.70;99.90;;;;;;5049242;28;20162;-57
2022/02/11 07:40:39;;;;;;;4.20;3.23;;;2.70;99.90;;;;;;5062135;28;20184;-49
2022/02/11 07:43:04;;;;;;;7.18;2.75;;;2.70;99.90;;;;;;5050952;28;20466;-54
2022/02/11 07:45:30;;;;;;;4.37;3.57;;;2.70;99.90;;;;;;5061871;28;20181;-55
2022/02/11 07:47:56;;;;;;;4.93;3.20;;;2.80;99.90;;;;;;5065403;28;20472;-57
2022/02/11 07:50:22;;;;;;;4.20;2.85;;;2.90;99.90;;;;;;5054023;28;20170;-55
2022/02/11 07:52:48;;;;;;;3.60;3.00;;;3.00;99.90;;;;;;5067034;28;20707;-56
2022/02/11 07:55:14;;;;;;;3.83;2.90;;;3.10;99.90;;;;;;5070521;28;20272;-56
2022/02/11 07:57:39;;;;;;;4.17;3.77;;;3.10;99.90;;;;;;5070375;28;20331;-55
2022/02/11 08:00:06;;;;;;;4.60;3.60;;;3.10;99.90;;;;;;5059596;28;20183;-52
2022/02/11 08:02:34;;;;;;;3.33;3.03;;;3.20;99.90;;;;;;5065441;28;20181;-55
2022/02/11 08:05:01;;;;;;;4.57;3.45;;;3.20;99.90;;;;;;5055227;28;20188;-57
2022/02/11 08:07:26;;;;;;;3.45;3.15;;;3.10;99.90;;;;;;5047803;28;20194;-57
2022/02/11 08:09:52;;;;;;;4.40;2.97;;;3.20;99.90;;;;;;5062496;28;20185;-59
2022/02/11 08:12:17;;;;;;;4.70;3.23;;;3.20;99.90;;;;;;5060989;28;20204;-56
2022/02/11 08:14:43;;;;;;;9.90;3.50;;;3.20;99.90;;;;;;5055003;28;20220;-59
2022/02/11 08:17:09;;;;;;;4.13;3.10;;;3.20;99.90;;;;;;5054260;28;20190;-59
2022/02/11 08:19:35;;;;;;;4.73;3.40;;;3.10;99.90;;;;;;5047769;28;20602;-58
2022/02/11 08:22:00;;;;;;;5.80;3.20;;;3.10;99.90;;;;;;5047963;28;20186;-57
2022/02/11 08:24:26;;;;;;;3.80;3.40;;;3.10;99.90;;;;;;5062242;28;20639;-56
2022/02/11 08:26:51;;;;;;;3.83;2.97;;;3.20;99.90;;;;;;5048055;28;20206;-56
2022/02/11 08:29:21;;;;;;;3.40;2.50;;;3.20;99.90;;;;;;5064594;28;20174;-57
2022/02/11 08:31:47;;;;;;;3.30;2.97;;;3.20;99.90;;;;;;5068811;28;20177;-58
2022/02/11 08:34:12;;;;;;;3.20;2.73;;;3.10;99.90;;;;;;5066462;28;20177;-53
2022/02/11 08:36:38;;;;;;;5.13;3.17;;;3.10;99.90;;;;;;5048401;28;20448;-56
2022/02/11 08:39:03;;;;;;;5.27;3.00;;;3.00;99.90;;;;;;5064381;28;20181;-59
2022/02/11 08:41:29;;;;;;;5.30;2.90;;;2.90;99.90;;;;;;5052359;28;20190;-59
2022/02/11 08:43:54;;;;;;;3.70;2.90;;;2.90;99.90;;;;;;5064347;28;20173;-60
2022/02/11 08:46:24;;;;;;;4.10;2.90;;;3.00;99.90;;;;;;5068551;28;20283;-58
2022/02/11 08:48:49;;;;;;;4.07;2.92;;;3.00;99.90;;;;;;5065954;28;20489;-59
2022/02/11 08:51:15;;;;;;;5.10;3.10;;;3.00;99.90;;;;;;5068999;28;20174;-59
2022/02/11 08:53:41;;;;;;;4.60;2.92;;;3.00;99.90;;;;;;5067205;28;20225;-56
2022/02/11 08:56:08;;;;;;;3.37;2.60;;;2.90;99.90;;;;;;5062160;28;20186;-58
2022/02/11 08:58:34;;;;;;;45.97;28.98;;;3.10;99.90;;;;;;5061901;28;20223;-59
2022/02/11 09:01:00;;;;;;;20.63;12.35;;;3.10;99.90;;;;;;5060337;28;20236;-59
2022/02/11 09:03:26;;;;;;;29.43;15.57;;;3.10;99.90;;;;;;5052877;28;20223;-58
2022/02/11 09:05:52;;;;;;;8.13;5.35;;;3.20;99.90;;;;;;5048301;28;20973;-59
2022/02/11 09:08:17;;;;;;;4.00;2.93;;;3.40;99.90;;;;;;5047441;28;20178;-59
2022/02/11 09:10:47;;;;;;;5.17;3.10;;;3.50;99.90;;;;;;5044402;28;20503;-59
2022/02/11 09:13:13;;;;;;;4.88;3.75;;;3.50;99.90;;;;;;5060669;28;20181;-59
2022/02/11 09:15:38;;;;;;;7.50;4.70;;;3.50;99.90;;;;;;5065992;28;20182;-59
2022/02/11 09:18:04;;;;;;;4.93;4.20;;;3.50;99.90;;;;;;5048599;28;20178;-58
2022/02/11 09:20:30;;;;;;;3.57;2.90;;;3.60;99.90;;;;;;5064162;28;20182;-58
2022/02/11 09:22:56;;;;;;;8.30;5.07;;;3.80;99.90;;;;;;5056973;28;20228;-57
2022/02/11 09:25:22;;;;;;;4.00;2.80;;;3.90;99.90;;;;;;5050960;28;20440;-58
2022/02/11 09:27:48;;;;;;;3.15;2.63;;;4.00;99.90;;;;;;5058848;28;20189;-60
2022/02/11 09:30:19;;;;;;;5.45;3.13;;;4.00;99.90;;;;;;5057988;28;20183;-54
2022/02/11 09:32:47;;;;;;;3.65;3.10;;;4.10;99.90;;;;;;5070097;28;20166;-58
2022/02/11 09:35:14;;;;;;;5.43;3.80;;;4.00;99.90;;;;;;5048468;28;20232;-55
2022/02/11 09:37:40;;;;;;;4.57;3.55;;;3.90;99.90;;;;;;5051996;28;20194;-56
2022/02/11 09:40:09;;;;;;;4.30;3.80;;;3.90;99.90;;;;;;5050910;28;20182;-59
2022/02/11 09:42:36;;;;;;;4.80;3.75;;;3.90;99.90;;;;;;5052059;28;20527;-54
2022/02/11 09:45:02;;;;;;;4.28;3.25;;;4.00;99.90;;;;;;5051397;28;20189;-58
2022/02/11 09:47:27;;;;;;;4.05;3.65;;;4.10;99.90;;;;;;5051487;28;20209;-56
2022/02/11 09:49:53;;;;;;;4.07;3.57;;;4.00;99.90;;;;;;5071274;28;20181;-56
2022/02/11 09:52:19;;;;;;;4.47;3.70;;;4.10;99.90;;;;;;5056640;28;20226;-53
2022/02/11 09:54:45;;;;;;;5.00;4.20;;;4.50;99.90;;;;;;5058197;28;20174;-54
2022/02/11 09:57:13;;;;;;;5.55;4.20;;;5.20;99.90;;;;;;5055045;28;20193;-57
2022/02/11 09:59:40;;;;;;;4.88;3.97;;;5.70;99.90;;;;;;5051223;28;20183;-59
2022/02/11 10:02:06;;;;;;;5.25;3.88;;;6.10;99.90;;;;;;5060963;28;20248;-58
2022/02/11 10:04:32;;;;;;;4.57;3.70;;;6.20;99.90;;;;;;5069112;28;20181;-57
2022/02/11 10:06:59;;;;;;;4.73;4.20;;;6.50;99.90;;;;;;5051527;28;20202;-57
2022/02/11 10:09:24;;;;;;;6.47;4.13;;;7.10;99.90;;;;;;5051646;28;20508;-56
2022/02/11 10:11:51;;;;;;;5.00;3.60;;;7.60;99.90;;;;;;5064445;28;20421;-56
2022/02/11 10:14:23;;;;;;;4.00;3.63;;;8.10;99.90;;;;;;5050930;28;20755;-57
2022/02/11 10:16:59;;;;;;;4.93;4.20;;;8.30;99.90;;;;;;5052026;28;20480;-57
2022/02/11 10:19:45;;;;;;;5.67;3.93;;;8.70;99.90;;;;;;5054980;28;20490;-59
2022/02/11 10:22:19;;;;;;;6.43;3.87;;;9.30;99.90;;;;;;5068658;28;20424;-58
2022/02/11 10:24:46;;;;;;;5.40;4.17;;;9.80;99.90;;;;;;5063982;28;20432;-56
2022/02/11 10:27:32;;;;;;;4.40;4.00;;;10.00;98.40;;;;;;5054945;28;20498;-57
2022/02/11 10:30:07;;;;;;;6.20;5.20;;;9.90;98.00;;;;;;5057255;28;20416;-62
2022/02/11 10:32:45;;;;;;;4.20;3.73;;;9.00;97.70;;;;;;5057272;28;20426;-58
2022/02/11 10:35:14;;;;;;;5.80;4.77;;;8.50;99.80;;;;;;5067077;28;20427;-59
2022/02/11 10:38:06;;;;;;;4.97;4.47;;;8.40;99.90;;;;;;5063527;28;20421;-58
2022/02/11 10:40:33;;;;;;;5.13;4.63;;;8.40;99.90;;;;;;5064049;28;20489;-58
2022/02/11 10:42:59;;;;;;;6.77;4.20;;;8.70;99.90;;;;;;5051071;28;20528;-58
2022/02/11 10:45:37;;;;;;;5.03;3.97;;;9.20;99.60;;;;;;5063200;28;20480;-58
2022/02/11 10:48:17;;;;;;;4.80;4.30;;;9.60;97.90;;;;;;5070659;28;20212;-57
2022/02/11 10:50:52;;;;;;;4.87;4.47;;;9.60;96.00;;;;;;5053879;28;20442;-56
2022/02/11 10:53:25;;;;;;;5.27;4.53;;;9.60;97.10;;;;;;5050818;28;20886;-59
2022/02/11 10:55:52;;;;;;;4.50;4.10;;;9.40;95.50;;;;;;5054929;28;20790;-58
2022/02/11 10:58:19;;;;;;;4.37;3.97;;;9.00;95.80;;;;;;5062693;28;20436;-57
2022/02/11 11:00:45;;;;;;;4.70;4.13;;;8.20;97.00;;;;;;5066366;28;20412;-59
2022/02/11 11:03:12;;;;;;;6.33;4.20;;;7.80;98.90;;;;;;5050508;28;20425;-57
2022/02/11 11:05:44;;;;;;;5.38;4.20;;;7.20;99.90;;;;;;5063553;28;20429;-55
2022/02/11 11:08:12;;;;;;;4.60;4.20;;;6.70;99.90;;;;;;5067512;28;20206;-56
2022/02/11 11:10:43;;;;;;;5.10;3.33;;;6.00;99.90;;;;;;5062704;28;20253;-56
2022/02/11 11:13:16;;;;;;;4.82;3.80;;;5.60;99.90;;;;;;5038461;28;20537;-56
2022/02/11 11:15:43;;;;;;;4.50;3.30;;;5.30;99.90;;;;;;5046051;28;20186;-59
2022/02/11 11:18:11;;;;;;;5.30;4.22;;;5.00;99.90;;;;;;5042725;28;20270;-59
2022/02/11 11:20:38;;;;;;;5.95;3.45;;;4.70;99.90;;;;;;5048771;28;20191;-56
2022/02/11 11:23:26;;;;;;;4.50;3.67;;;4.60;99.90;;;;;;5052823;28;20659;-56
2022/02/11 11:25:53;;;;;;;4.65;3.63;;;4.50;99.90;;;;;;5049689;28;20261;-58
2022/02/11 11:28:38;;;;;;;3.90;3.50;;;4.50;99.90;;;;;;5051894;28;20185;-54
2022/02/11 11:31:14;;;;;;;4.97;4.47;;;4.70;99.90;;;;;;5057635;28;20182;-56
2022/02/11 11:33:41;;;;;;;4.45;4.00;;;4.70;99.90;;;;;;5061847;28;20742;-55
2022/02/11 11:36:09;;;;;;;5.93;3.95;;;4.90;99.90;;;;;;5069737;28;20201;-56
2022/02/11 11:38:46;;;;;;;6.38;3.90;;;5.00;99.90;;;;;;5060812;28;20186;-55
2022/02/11 11:41:24;;;;;;;5.22;3.80;;;5.20;99.90;;;;;;5049420;28;20182;-57
2022/02/11 11:43:55;;;;;;;5.47;3.78;;;5.40;99.90;;;;;;5048868;28;20178;-57
2022/02/11 11:46:21;;;;;;;4.30;3.90;;;5.40;99.90;;;;;;5058231;28;20209;-58
2022/02/11 11:48:52;;;;;;;4.83;3.90;;;5.40;99.90;;;;;;5061255;28;20206;-55
2022/02/11 11:51:19;;;;;;;5.20;3.83;;;5.50;99.90;;;;;;5047177;28;20656;-57
2022/02/11 11:53:44;;;;;;;4.45;3.95;;;5.50;99.90;;;;;;5047523;28;20240;-57
2022/02/11 11:56:33;;;;;;;4.17;3.40;;;5.70;99.90;;;;;;5047680;28;20178;-53
2022/02/11 11:59:15;;;;;;;4.18;3.38;;;5.70;99.90;;;;;;5049552;28;20196;-56
2022/02/11 12:02:02;;;;;;;4.63;4.07;;;5.90;99.90;;;;;;5050496;28;20636;-56
2022/02/11 12:04:34;;;;;;;4.05;3.13;;;6.00;99.90;;;;;;5047485;28;20186;-57
2022/02/11 12:07:06;;;;;;;4.47;3.20;;;6.10;99.90;;;;;;5047209;28;20210;-57
2022/02/11 12:09:32;;;;;;;5.32;3.80;;;6.20;99.90;;;;;;5046925;28;20171;-59
2022/02/11 12:12:04;;;;;;;4.32;3.13;;;6.30;99.90;;;;;;5049404;28;20182;-58
2022/02/11 12:14:33;;;;;;;4.60;3.50;;;6.40;99.90;;;;;;5045390;28;20510;-57
2022/02/11 12:17:01;;;;;;;5.15;4.10;;;6.50;99.90;;;;;;5049428;28;20185;-58
2022/02/11 12:19:28;;;;;;;3.85;3.10;;;6.40;99.90;;;;;;5049823;28;20186;-58
2022/02/11 12:21:53;;;;;;;6.10;3.53;;;6.40;99.90;;;;;;5046477;28;20174;-54
2022/02/11 12:27:20;;;;;;;3.58;3.28;;;6.40;99.90;;;;;;5048219;28;20467;-58
2022/02/11 12:29:51;;;;;;;5.18;3.80;;;6.40;99.90;;;;;;5049004;28;20178;-59
2022/02/11 12:32:21;;;;;;;5.13;3.53;;;6.50;99.90;;;;;;5047429;28;20184;-49
2022/02/11 12:34:48;;;;;;;4.63;4.15;;;6.60;99.90;;;;;;5051633;28;20183;-60
2022/02/11 12:37:13;;;;;;;3.38;3.08;;;6.80;99.90;;;;;;5047437;28;20722;-55
2022/02/11 12:39:39;;;;;;;5.80;4.00;;;6.60;99.90;;;;;;5048028;28;20186;-59
2022/02/11 12:42:05;;;;;;;4.03;3.67;;;6.60;99.90;;;;;;5048346;28;20659;-52
2022/02/11 12:44:34;;;;;;;4.67;3.60;;;6.50;99.90;;;;;;5046055;28;20178;-60
2022/02/11 12:47:01;;;;;;;5.25;3.30;;;6.50;99.90;;;;;;5045262;28;20252;-55
2022/02/11 12:49:29;;;;;;;5.55;3.58;;;6.40;99.90;;;;;;5046510;28;20273;-58
2022/02/11 12:51:57;;;;;;;3.35;3.10;;;6.50;99.90;;;;;;5043407;28;20218;-54
2022/02/11 12:54:23;;;;;;;4.88;3.80;;;6.40;99.90;;;;;;5046513;28;20178;-56
2022/02/11 12:57:00;;;;;;;4.05;3.65;;;6.30;99.90;;;;;;5049069;28;20536;-59
2022/02/11 12:59:25;;;;;;;3.75;3.03;;;6.30;99.90;;;;;;5051336;28;20178;-57
2022/02/11 13:01:51;;;;;;;5.00;3.63;;;6.30;99.90;;;;;;5053007;28;20179;-57
2022/02/11 13:04:19;;;;;;;4.53;4.13;;;6.30;99.90;;;;;;5050453;28;20194;-55
2022/02/11 13:06:44;;;;;;;5.05;3.17;;;6.30;99.90;;;;;;5051574;28;20608;-56
2022/02/11 13:09:11;;;;;;;3.70;3.40;;;6.30;99.90;;;;;;5044357;28;20179;-58
2022/02/11 13:11:37;;;;;;;9.55;3.92;;;6.30;99.90;;;;;;5036451;28;20233;-57
2022/02/11 13:14:07;;;;;;;4.40;3.70;;;6.30;99.90;;;;;;5042383;28;20612;-58
2022/02/11 13:16:34;;;;;;;4.30;3.90;;;6.10;99.90;;;;;;5048998;28;20273;-57
2022/02/11 13:19:15;;;;;;;4.95;3.60;;;6.10;99.90;;;;;;5052409;28;20707;-57
2022/02/11 13:21:41;;;;;;;3.13;2.80;;;6.10;99.90;;;;;;5048602;28;20202;-59
2022/02/11 13:24:07;;;;;;;4.95;3.90;;;6.00;99.90;;;;;;5050572;28;20186;-57
2022/02/11 13:26:34;;;;;;;4.38;3.55;;;5.90;99.90;;;;;;5050415;28;20848;-56
2022/02/11 13:29:00;;;;;;;3.95;3.50;;;5.90;99.90;;;;;;5060338;28;20235;-54
2022/02/11 13:31:26;;;;;;;4.57;3.60;;;5.90;99.90;;;;;;5050460;28;20529;-56
2022/02/11 13:34:10;;;;;;;3.75;3.45;;;5.80;99.90;;;;;;5054703;28;20428;-55
2022/02/11 13:36:35;;;;;;;4.03;3.63;;;5.70;99.90;;;;;;5072262;28;20178;-58
2022/02/11 13:39:02;;;;;;;5.90;4.17;;;5.70;99.90;;;;;;5064060;28;20537;-56
2022/02/11 13:41:32;;;;;;;4.25;3.80;;;5.80;99.90;;;;;;5053143;28;20194;-57
2022/02/11 13:44:06;;;;;;;4.22;3.83;;;5.80;99.90;;;;;;5061151;28;20213;-57
2022/02/11 13:46:40;;;;;;;4.05;3.65;;;5.80;99.90;;;;;;5060029;28;20213;-55
2022/02/11 13:49:13;;;;;;;5.15;4.32;;;5.90;99.90;;;;;;5064004;28;20170;-56
2022/02/11 13:51:40;;;;;;;4.38;3.90;;;6.10;99.90;;;;;;5051470;28;20183;-54
2022/02/11 13:54:14;;;;;;;4.57;3.67;;;6.10;99.90;;;;;;5053631;28;20186;-55
2022/02/11 13:56:45;;;;;;;4.18;3.78;;;6.10;99.90;;;;;;5050520;28;20190;-55
2022/02/11 13:59:23;;;;;;;4.15;3.30;;;6.10;99.90;;;;;;5053209;28;20587;-55
2022/02/11 14:01:49;;;;;;;5.38;3.88;;;6.10;99.90;;;;;;5051914;28;20239;-56
2022/02/11 14:04:20;;;;;;;4.60;4.00;;;6.10;99.90;;;;;;5064560;28;20190;-57
2022/02/11 14:06:54;;;;;;;4.07;3.67;;;6.00;99.90;;;;;;5049707;28;20461;-56
2022/02/11 14:09:37;;;;;;;3.55;3.00;;;6.00;99.90;;;;;;5050217;28;20196;-53
2022/02/11 14:12:04;;;;;;;4.88;4.18;;;6.00;99.90;;;;;;5050113;28;20186;-53
2022/02/11 14:14:32;;;;;;;4.43;3.80;;;6.00;99.90;;;;;;5054266;28;20183;-58
2022/02/11 14:16:58;;;;;;;4.05;3.65;;;5.80;99.90;;;;;;5060729;28;20186;-56
2022/02/11 14:19:24;;;;;;;3.90;3.60;;;5.70;99.90;;;;;;5055809;28;20194;-59
2022/02/11 14:21:54;;;;;;;5.40;4.43;;;5.60;99.90;;;;;;5051230;28;20459;-57
2022/02/11 14:24:20;;;;;;;5.72;4.15;;;5.50;99.90;;;;;;5062660;28;20178;-60
2022/02/11 14:26:46;;;;;;;5.75;3.97;;;5.40;99.90;;;;;;5060527;28;20205;-59
2022/02/11 14:29:12;;;;;;;4.93;4.25;;;5.40;99.90;;;;;;5051663;28;20175;-53
2022/02/11 14:31:41;;;;;;;4.90;4.40;;;5.30;99.90;;;;;;5060617;28;20648;-57
2022/02/11 14:34:10;;;;;;;4.72;3.95;;;5.30;99.90;;;;;;5053036;28;20198;-57
2022/02/11 14:36:38;;;;;;;4.60;3.80;;;5.20;99.90;;;;;;5049418;28;20228;-57
2022/02/11 14:39:07;;;;;;;5.43;3.35;;;5.30;99.90;;;;;;5056423;28;20178;-57
2022/02/11 14:41:48;;;;;;;6.15;4.30;;;5.40;99.90;;;;;;5050228;28;20181;-56
2022/02/11 14:44:14;;;;;;;4.75;4.00;;;5.30;99.90;;;;;;5060040;28;20185;-57
2022/02/11 14:46:40;;;;;;;6.20;4.35;;;5.30;99.90;;;;;;5042419;28;20248;-55
2022/02/11 14:49:05;;;;;;;6.20;4.17;;;5.30;99.90;;;;;;5042888;28;20233;-56
2022/02/11 14:51:34;;;;;;;5.23;4.00;;;5.30;99.90;;;;;;5052363;28;20189;-57
2022/02/11 14:54:03;;;;;;;4.63;4.20;;;5.30;99.90;;;;;;5044175;28;20965;-56
2022/02/11 14:56:29;;;;;;;4.55;4.07;;;5.30;99.90;;;;;;5046424;28;20285;-57
2022/02/11 14:58:55;;;;;;;4.57;4.07;;;5.40;99.90;;;;;;5046668;28;21130;-56
2022/02/11 15:01:20;;;;;;;4.80;4.20;;;5.50;99.90;;;;;;5063407;28;20272;-58
2022/02/11 15:03:46;;;;;;;4.73;4.30;;;5.50;99.90;;;;;;5058496;28;20217;-55
2022/02/11 15:06:12;;;;;;;4.97;4.53;;;5.40;99.90;;;;;;5049992;28;20580;-57
2022/02/11 15:08:37;;;;;;;4.53;4.00;;;5.40;99.90;;;;;;5052406;28;20715;-55
2022/02/11 15:11:03;;;;;;;5.17;4.00;;;5.40;99.90;;;;;;5058221;28;20429;-56
2022/02/11 15:13:29;;;;;;;5.73;3.80;;;5.40;99.90;;;;;;5051155;28;20193;-56
2022/02/11 15:15:54;;;;;;;4.57;3.83;;;5.50;99.90;;;;;;5057025;28;20182;-52
2022/02/11 15:18:20;;;;;;;4.70;3.40;;;5.50;99.90;;;;;;5059594;28;20209;-57
2022/02/11 15:20:47;;;;;;;4.78;4.13;;;5.50;99.90;;;;;;5063690;28;20170;-54
2022/02/11 15:23:13;;;;;;;3.58;3.20;;;5.40;99.90;;;;;;5068645;28;20221;-55
2022/02/11 15:25:39;;;;;;;3.72;3.08;;;5.40;99.90;;;;;;5064266;28;20191;-57
2022/02/11 15:28:04;;;;;;;4.07;3.27;;;5.30;99.90;;;;;;5069745;28;20197;-56
2022/02/11 15:30:30;;;;;;;5.13;3.50;;;5.30;99.90;;;;;;5049974;28;20627;-53
2022/02/11 15:32:56;;;;;;;3.40;3.10;;;5.30;99.90;;;;;;5056157;28;20643;-58
2022/02/11 15:35:24;;;;;;;3.60;3.20;;;5.30;99.90;;;;;;5067446;28;20201;-57
2022/02/11 15:37:52;;;;;;;4.00;3.40;;;5.30;99.90;;;;;;5049945;28;20841;-57
2022/02/11 15:40:18;;;;;;;4.53;3.80;;;5.30;99.90;;;;;;5062391;28;20177;-58
2022/02/11 15:42:44;;;;;;;3.75;3.40;;;5.20;99.90;;;;;;5066600;28;20197;-58
2022/02/11 15:45:09;;;;;;;3.30;3.00;;;5.20;99.90;;;;;;5057015;28;20648;-58
2022/02/11 15:47:35;;;;;;;3.90;2.90;;;5.10;99.90;;;;;;5059952;28;21021;-57
2022/02/11 15:50:01;;;;;;;3.50;3.20;;;5.20;99.90;;;;;;5069783;28;20178;-56
2022/02/11 15:52:26;;;;;;;5.03;3.27;;;5.20;99.90;;;;;;5052195;28;20786;-60
2022/02/11 15:54:52;;;;;;;3.80;3.47;;;5.10;99.90;;;;;;5040147;28;20178;-53
2022/02/11 15:57:19;;;;;;;3.20;2.90;;;5.20;99.90;;;;;;5048907;28;20645;-58
2022/02/11 15:59:45;;;;;;;3.45;3.15;;;5.20;99.90;;;;;;5049369;28;20213;-59
2022/02/11 16:02:11;;;;;;;3.80;3.30;;;5.20;99.90;;;;;;5052096;28;20649;-56
2022/02/11 16:04:37;;;;;;;4.83;3.33;;;5.20;99.90;;;;;;5061186;28;20174;-59
2022/02/11 16:07:02;;;;;;;3.60;3.00;;;5.20;99.90;;;;;;5047381;28;20456;-55
2022/02/11 16:09:28;;;;;;;3.27;2.97;;;5.20;99.90;;;;;;5053961;28;20945;-57
2022/02/11 16:11:57;;;;;;;4.67;3.10;;;5.20;99.90;;;;;;5062732;28;20789;-58
2022/02/11 16:14:26;;;;;;;3.53;2.85;;;5.30;99.90;;;;;;5049267;28;20190;-56
2022/02/11 16:16:52;;;;;;;3.15;2.83;;;5.20;99.90;;;;;;5047481;28;20186;-59
2022/02/11 16:19:18;;;;;;;4.17;3.13;;;5.20;99.90;;;;;;5051047;28;20722;-57
2022/02/11 16:21:44;;;;;;;3.47;3.00;;;5.10;99.90;;;;;;5036162;28;20440;-58
2022/02/11 16:24:09;;;;;;;3.33;2.80;;;5.10;99.90;;;;;;5054336;28;20181;-54
2022/02/11 16:26:36;;;;;;;3.63;3.00;;;5.00;99.90;;;;;;5061147;28;20244;-57
2022/02/11 16:29:02;;;;;;;3.95;3.15;;;4.90;99.90;;;;;;5067519;28;20231;-58
2022/02/11 16:31:28;;;;;;;3.70;3.35;;;4.90;99.90;;;;;;5064130;28;20917;-55
2022/02/11 16:33:55;;;;;;;4.53;3.63;;;4.90;99.90;;;;;;5043846;28;20182;-59
2022/02/11 16:36:23;;;;;;;7.15;3.60;;;4.80;99.90;;;;;;5046987;28;20943;-51
2022/02/11 16:38:50;;;;;;;3.72;3.42;;;4.80;99.90;;;;;;5045898;28;20179;-55
2022/02/11 16:41:19;;;;;;;4.75;3.40;;;4.80;99.90;;;;;;5048443;28;20178;-57
2022/02/11 16:43:45;;;;;;;3.90;3.50;;;4.80;99.90;;;;;;5057359;28;20261;-60
2022/02/11 16:46:11;;;;;;;4.13;3.57;;;4.80;99.90;;;;;;5057843;28;20719;-56
2022/02/11 16:48:37;;;;;;;4.67;3.60;;;4.80;99.90;;;;;;5047233;28;20431;-57
2022/02/11 16:51:02;;;;;;;3.63;3.17;;;4.70;99.90;;;;;;5051267;28;20640;-55